createdAt,value
2023-12-07T00:00:37.839Z,6.60
2023-12-07T00:03:27.621Z,6.50
2023-12-07T00:05:57.353Z,6.30
2023-12-07T00:08:24.505Z,7.20
2023-12-07T00:10:51.427Z,6.90
2023-12-07T00:13:18.263Z,5.20
2023-12-07T00:15:45.178Z,7.80
2023-12-07T00:18:11.967Z,7.00
2023-12-07T00:20:39.057Z,7.00
2023-12-07T00:23:06.546Z,6.70
2023-12-07T00:25:36.097Z,7.20
2023-12-07T00:28:04.125Z,7.70
2023-12-07T00:30:31.460Z,7.40
2023-12-07T00:32:58.387Z,6.60
2023-12-07T00:35:25.541Z,7.40
2023-12-07T00:37:52.736Z,6.40
2023-12-07T00:40:23.033Z,7.30
2023-12-07T00:42:51.096Z,7.50
2023-12-07T00:45:20.512Z,6.00
2023-12-07T00:47:47.353Z,7.00
2023-12-07T00:50:15.105Z,6.60
2023-12-07T00:52:42.259Z,6.50
2023-12-07T00:55:12.408Z,8.20
2023-12-07T00:57:40.639Z,5.90
2023-12-07T01:00:08.591Z,6.70
2023-12-07T01:02:35.882Z,6.80
2023-12-07T01:05:02.901Z,6.00
2023-12-07T01:07:29.807Z,6.70
2023-12-07T01:09:56.737Z,6.50
2023-12-07T01:12:23.878Z,5.30
2023-12-07T01:14:53.716Z,5.40
2023-12-07T01:17:20.578Z,6.20
2023-12-07T01:19:47.544Z,6.10
2023-12-07T01:22:19.353Z,6.50
2023-12-07T01:24:46.526Z,6.00
2023-12-07T01:27:16.937Z,6.80
2023-12-07T01:29:43.757Z,5.70
2023-12-07T01:32:10.655Z,6.20
2023-12-07T01:34:37.408Z,5.60
2023-12-07T01:37:06.546Z,6.10
2023-12-07T01:39:33.631Z,6.50
2023-12-07T01:42:00.406Z,5.70
2023-12-07T01:44:29.903Z,6.50
2023-12-07T01:46:59.684Z,6.20
2023-12-07T01:49:26.604Z,5.50
2023-12-07T01:51:53.395Z,6.00
2023-12-07T01:54:24.849Z,5.00
2023-12-07T01:56:53.555Z,5.30
2023-12-07T01:59:24.342Z,5.00
2023-12-07T02:01:51.814Z,4.70
2023-12-07T02:04:21.065Z,4.70
2023-12-07T02:06:47.787Z,5.10
2023-12-07T02:09:16.378Z,4.20
2023-12-07T02:11:43.048Z,4.00
2023-12-07T02:14:12.895Z,4.50
2023-12-07T02:16:49.200Z,3.90
2023-12-07T02:19:19.206Z,3.60
2023-12-07T02:21:49.917Z,4.00
2023-12-07T02:24:24.317Z,4.20
2023-12-07T02:26:51.487Z,4.90
2023-12-07T02:29:23.347Z,3.90
2023-12-07T02:31:50.119Z,4.70
2023-12-07T02:34:17.385Z,4.40
2023-12-07T02:36:47.578Z,4.30
2023-12-07T02:39:14.992Z,4.40
2023-12-07T02:41:41.992Z,4.20
2023-12-07T02:44:12.500Z,4.30
2023-12-07T02:46:39.708Z,4.50
2023-12-07T02:49:06.749Z,4.50
2023-12-07T02:51:33.972Z,4.90
2023-12-07T02:54:02.727Z,3.80
2023-12-07T02:56:29.627Z,3.90
2023-12-07T02:59:00.575Z,4.20
2023-12-07T03:01:29.819Z,4.30
2023-12-07T03:03:56.612Z,4.50
2023-12-07T03:06:23.565Z,4.30
2023-12-07T03:08:50.412Z,4.60
2023-12-07T03:11:17.273Z,4.50
2023-12-07T03:13:44.050Z,4.20
2023-12-07T03:16:13.475Z,4.40
2023-12-07T03:18:40.450Z,4.40
2023-12-07T03:21:11.270Z,4.50
2023-12-07T03:23:40.975Z,4.10
2023-12-07T03:26:07.727Z,4.10
2023-12-07T03:28:35.828Z,4.20
2023-12-07T03:31:03.192Z,4.30
2023-12-07T03:33:33.165Z,4.00
2023-12-07T03:36:02.703Z,4.70
2023-12-07T03:38:32.776Z,4.70
2023-12-07T03:40:59.716Z,4.70
2023-12-07T03:43:29.628Z,4.20
2023-12-07T03:45:56.603Z,3.80
2023-12-07T03:48:23.650Z,3.80
2023-12-07T03:54:53.523Z,4.90
2023-12-07T03:57:41.440Z,5.30
2023-12-07T04:00:31.052Z,4.70
2023-12-07T04:03:56.027Z,4.60
2023-12-07T04:06:35.358Z,5.60
2023-12-07T04:09:02.170Z,4.40
2023-12-07T04:11:34.670Z,4.40
2023-12-07T04:14:01.383Z,4.80
2023-12-07T04:16:28.427Z,5.40
2023-12-07T04:18:55.404Z,5.80
2023-12-07T04:21:22.131Z,5.20
2023-12-07T04:23:49.096Z,5.20
2023-12-07T04:26:16.393Z,4.10
2023-12-07T04:28:44.916Z,5.00
2023-12-07T04:31:13.848Z,5.00
2023-12-07T04:33:40.820Z,5.20
2023-12-07T04:36:10.435Z,4.20
2023-12-07T04:38:37.349Z,4.20
2023-12-07T04:41:04.300Z,5.20
2023-12-07T04:43:31.404Z,3.80
2023-12-07T04:45:58.436Z,4.60
2023-12-07T04:48:27.967Z,4.30
2023-12-07T04:51:00.806Z,4.60
2023-12-07T04:59:54.699Z,4.60
2023-12-07T05:02:21.508Z,4.40
2023-12-07T05:04:48.495Z,4.70
2023-12-07T05:07:15.505Z,4.70
2023-12-07T05:09:42.635Z,4.70
2023-12-07T05:12:12.273Z,4.90
2023-12-07T05:14:39.110Z,4.90
2023-12-07T05:17:06.321Z,4.40
2023-12-07T05:20:02.844Z,4.00
2023-12-07T05:23:10.382Z,5.30
2023-12-07T05:25:56.876Z,4.60
2023-12-07T05:28:26.210Z,4.10
2023-12-07T05:30:53.490Z,6.00
2023-12-07T05:33:20.509Z,4.40
2023-12-07T05:35:47.359Z,4.40
2023-12-07T05:38:14.393Z,4.10
2023-12-07T05:40:41.530Z,4.10
2023-12-07T05:44:10.065Z,4.20
2023-12-07T05:46:55.221Z,3.80
2023-12-07T05:49:29.035Z,4.10
2023-12-07T05:51:56.073Z,3.80
2023-12-07T05:54:24.952Z,3.60
2023-12-07T05:56:51.901Z,5.00
2023-12-07T05:59:19.958Z,4.20
2023-12-07T06:01:51.794Z,4.20
2023-12-07T06:04:45.446Z,4.70
2023-12-07T06:07:53.977Z,4.70
2023-12-07T06:10:24.214Z,4.30
2023-12-07T06:12:51.246Z,4.70
2023-12-07T06:15:18.023Z,4.10
2023-12-07T06:17:47.742Z,4.40
2023-12-07T06:20:14.723Z,3.90
2023-12-07T06:22:44.781Z,3.80
2023-12-07T06:25:17.092Z,4.30
2023-12-07T06:27:44.920Z,3.80
2023-12-07T06:33:37.330Z,4.20
2023-12-07T06:36:05.559Z,3.50
2023-12-07T06:38:34.772Z,3.50
2023-12-07T06:41:01.612Z,3.90
2023-12-07T06:52:48.536Z,2.80
2023-12-07T06:55:16.011Z,3.90
2023-12-07T06:57:44.090Z,3.60
2023-12-07T07:03:25.398Z,3.30
2023-12-07T07:05:55.232Z,3.50
2023-12-07T07:08:22.273Z,3.80
2023-12-07T07:10:51.808Z,3.80
2023-12-07T07:13:21.474Z,3.70
2023-12-07T07:15:51.433Z,3.70
2023-12-07T07:18:18.591Z,3.40
2023-12-07T07:21:26.528Z,3.10
2023-12-07T07:24:24.659Z,3.00
2023-12-07T07:26:51.480Z,3.20
2023-12-07T07:29:20.218Z,3.20
2023-12-07T07:31:48.810Z,3.10
2023-12-07T07:37:45.701Z,3.20
2023-12-07T07:40:32.152Z,3.40
2023-12-07T07:46:11.148Z,3.30
2023-12-07T07:48:48.255Z,3.00
2023-12-07T07:51:15.187Z,3.00
2023-12-07T07:53:42.089Z,2.10
2023-12-07T07:56:09.362Z,2.60
2023-12-07T07:59:09.958Z,3.30
2023-12-07T08:05:34.548Z,2.80
2023-12-07T08:08:01.363Z,3.20
2023-12-07T08:10:33.339Z,2.70
2023-12-07T08:13:20.176Z,3.20
2023-12-07T08:15:47.109Z,3.70
2023-12-07T08:18:15.100Z,3.30
2023-12-07T08:20:44.413Z,3.50
2023-12-07T08:29:37.129Z,2.90
2023-12-07T08:32:04.205Z,2.70
2023-12-07T08:34:32.805Z,2.30
2023-12-07T08:37:03.389Z,2.50
2023-12-07T08:39:35.560Z,2.30
2023-12-07T08:42:04.948Z,2.50
2023-12-07T08:44:34.109Z,2.40
2023-12-07T08:47:00.897Z,2.10
2023-12-07T08:49:31.745Z,3.20
2023-12-07T08:52:12.596Z,2.20
2023-12-07T08:54:45.461Z,2.70
2023-12-07T08:57:12.409Z,2.10
2023-12-07T08:59:39.252Z,2.60
2023-12-07T09:02:37.387Z,2.40
2023-12-07T09:05:50.896Z,2.40
2023-12-07T09:08:33.689Z,1.80
2023-12-07T09:11:02.944Z,2.40
2023-12-07T09:13:29.749Z,2.50
2023-12-07T09:15:56.752Z,3.90
2023-12-07T09:18:24.287Z,3.30
2023-12-07T09:20:53.608Z,2.00
2023-12-07T09:23:22.932Z,2.50
2023-12-07T09:25:49.688Z,2.60
2023-12-07T09:28:19.062Z,2.80
2023-12-07T09:30:45.991Z,2.20
2023-12-07T09:33:16.648Z,3.40
2023-12-07T09:35:44.377Z,2.20
2023-12-07T09:38:13.130Z,3.90
2023-12-07T09:40:43.689Z,6.90
2023-12-07T09:43:11.638Z,4.20
2023-12-07T09:45:38.451Z,3.10
2023-12-07T09:48:05.280Z,2.60
2023-12-07T09:50:32.331Z,3.30
2023-12-07T09:53:07.068Z,5.20
2023-12-07T09:55:37.260Z,2.90
2023-12-07T10:00:40.003Z,2.00
2023-12-07T10:03:11.053Z,3.20
2023-12-07T10:05:57.413Z,3.10
2023-12-07T10:08:31.226Z,2.70
2023-12-07T10:11:05.586Z,2.30
2023-12-07T10:13:36.280Z,3.10
2023-12-07T10:16:10.951Z,2.20
2023-12-07T10:18:42.361Z,2.40
2023-12-07T10:21:12.875Z,2.90
2023-12-07T10:23:41.410Z,2.60
2023-12-07T10:26:08.197Z,3.10
2023-12-07T10:28:37.496Z,2.70
2023-12-07T10:31:07.221Z,2.60
2023-12-07T10:33:34.036Z,2.50
2023-12-07T10:36:04.973Z,2.60
2023-12-07T10:38:33.156Z,3.00
2023-12-07T10:41:08.823Z,4.00
2023-12-07T10:43:37.667Z,6.10
2023-12-07T10:46:05.712Z,5.30
2023-12-07T10:48:47.795Z,6.90
2023-12-07T10:52:05.778Z,8.50
2023-12-07T10:55:20.929Z,49.40
2023-12-07T10:57:47.929Z,36.90
2023-12-07T11:00:15.373Z,22.40
2023-12-07T11:02:43.493Z,10.30
2023-12-07T11:05:11.681Z,25.10
2023-12-07T11:08:01.157Z,9.50
2023-12-07T11:10:33.957Z,10.90
2023-12-07T11:13:04.054Z,11.40
2023-12-07T11:15:31.577Z,13.30
2023-12-07T11:18:00.150Z,12.80
2023-12-07T11:20:42.477Z,16.90
2023-12-07T11:23:10.358Z,16.70
2023-12-07T11:25:43.453Z,19.00
2023-12-07T11:28:11.709Z,17.10
2023-12-07T11:30:39.078Z,19.50
2023-12-07T11:33:08.116Z,14.90
2023-12-07T11:35:54.835Z,19.60
2023-12-07T11:38:21.626Z,23.50
2023-12-07T11:40:48.578Z,25.30
2023-12-07T11:43:36.867Z,26.20
2023-12-07T11:46:04.384Z,28.90
2023-12-07T11:48:38.561Z,28.40
2023-12-07T11:51:38.905Z,23.40
2023-12-07T11:55:09.790Z,26.90
2023-12-07T11:58:08.040Z,27.40
2023-12-07T12:00:35.749Z,24.50
2023-12-07T12:03:06.309Z,26.10
2023-12-07T12:05:36.087Z,30.60
2023-12-07T12:11:41.366Z,22.80
2023-12-07T12:14:22.573Z,26.30
2023-12-07T12:16:50.277Z,24.00
2023-12-07T12:19:25.909Z,23.60
2023-12-07T12:22:05.012Z,25.70
2023-12-07T12:24:34.504Z,24.80
2023-12-07T12:27:01.971Z,26.20
2023-12-07T12:29:33.980Z,26.30
2023-12-07T12:32:02.682Z,29.10
2023-12-07T12:34:34.601Z,28.00
2023-12-07T12:37:07.302Z,28.20
2023-12-07T12:55:10.789Z,26.80
2023-12-07T12:57:39.610Z,25.30
2023-12-07T13:00:08.538Z,27.00
2023-12-07T13:02:39.599Z,23.70
2023-12-07T13:05:08.516Z,25.90
2023-12-07T13:07:38.404Z,27.50
2023-12-07T13:10:09.631Z,27.30
2023-12-07T13:12:39.643Z,26.50
2023-12-07T13:15:08.378Z,26.30
2023-12-07T13:17:36.767Z,22.70
2023-12-07T13:20:06.519Z,23.60
2023-12-07T13:22:41.679Z,28.70
2023-12-07T13:25:09.882Z,29.00
2023-12-07T13:27:38.231Z,26.60
2023-12-07T13:30:12.264Z,24.80
2023-12-07T13:32:40.597Z,26.30
2023-12-07T13:35:14.034Z,22.80
2023-12-07T13:37:44.878Z,23.40
2023-12-07T13:40:16.590Z,21.30
2023-12-07T13:42:44.677Z,25.70
2023-12-07T13:45:12.924Z,26.20
2023-12-07T13:47:41.311Z,19.40
2023-12-07T13:50:13.315Z,27.70
2023-12-07T13:52:44.726Z,28.70
2023-12-07T13:55:15.085Z,29.50
2023-12-07T13:57:46.040Z,29.70
2023-12-07T14:00:14.679Z,29.60
2023-12-07T14:02:45.810Z,28.10
2023-12-07T14:05:14.415Z,28.80
2023-12-07T14:07:45.168Z,27.90
2023-12-07T14:10:16.790Z,32.30
2023-12-07T14:12:45.127Z,24.60
2023-12-07T14:15:13.706Z,30.40
2023-12-07T14:17:50.901Z,29.20
2023-12-07T14:20:35.665Z,32.50
2023-12-07T14:23:13.561Z,27.60
2023-12-07T14:25:41.674Z,34.80
2023-12-07T14:28:12.826Z,28.30
2023-12-07T14:30:46.831Z,38.60
2023-12-07T14:33:17.654Z,33.00
2023-12-07T14:35:50.059Z,32.90
2023-12-07T14:38:20.695Z,30.00
2023-12-07T14:40:48.930Z,36.20
2023-12-07T14:43:22.373Z,34.40
2023-12-07T14:45:50.646Z,26.40
2023-12-07T14:48:19.103Z,29.20
2023-12-07T14:50:49.850Z,29.40
2023-12-07T14:53:17.948Z,20.70
2023-12-07T14:55:46.461Z,28.50
2023-12-07T14:58:14.940Z,37.00
2023-12-07T15:00:46.214Z,28.70
2023-12-07T15:03:15.032Z,35.00
2023-12-07T15:05:43.732Z,34.10
2023-12-07T15:08:12.257Z,33.00
2023-12-07T15:10:40.428Z,36.70
2023-12-07T15:13:11.619Z,39.40
2023-12-07T15:15:39.925Z,38.20
2023-12-07T15:18:09.145Z,37.60
2023-12-07T15:20:42.425Z,37.20
2023-12-07T15:23:10.756Z,38.00
2023-12-07T15:25:41.437Z,39.70
2023-12-07T15:28:18.602Z,33.50
2023-12-07T15:30:46.771Z,33.80
2023-12-07T15:33:18.615Z,34.60
2023-12-07T15:35:50.701Z,35.20
2023-12-07T15:39:18.157Z,28.30
2023-12-07T15:42:14.351Z,32.70
2023-12-07T15:44:58.701Z,33.70
2023-12-07T15:47:27.498Z,33.10
2023-12-07T15:49:59.300Z,30.80
2023-12-07T15:53:08.031Z,31.40
2023-12-07T15:56:03.515Z,36.20
2023-12-07T15:58:43.974Z,36.40
2023-12-07T16:01:12.134Z,33.80
2023-12-07T16:03:40.772Z,36.60
2023-12-07T16:06:09.600Z,29.60
2023-12-07T16:08:48.781Z,28.30
2023-12-07T16:11:51.930Z,27.50
2023-12-07T16:14:49.334Z,23.70
2023-12-07T16:17:19.007Z,21.30
2023-12-07T16:19:47.363Z,30.80
2023-12-07T16:22:16.237Z,27.90
2023-12-07T16:24:46.725Z,29.50
2023-12-07T16:27:17.742Z,30.50
2023-12-07T16:29:48.987Z,36.90
2023-12-07T16:32:17.111Z,34.30
2023-12-07T16:34:48.211Z,29.40
2023-12-07T16:37:18.093Z,35.10
2023-12-07T16:39:49.804Z,32.90
2023-12-07T16:42:20.279Z,29.70
2023-12-07T16:44:53.282Z,33.90
2023-12-07T16:47:25.485Z,33.50
2023-12-07T16:52:24.605Z,37.20
2023-12-07T16:54:56.327Z,30.80
2023-12-07T16:57:25.310Z,35.90
2023-12-07T16:59:59.783Z,35.70
2023-12-07T17:02:32.301Z,36.60
2023-12-07T17:05:19.606Z,27.80
2023-12-07T17:10:56.743Z,28.50
2023-12-07T17:13:25.272Z,32.40
2023-12-07T17:15:55.220Z,28.80
2023-12-07T17:18:25.768Z,28.50
2023-12-07T17:20:56.045Z,26.20
2023-12-07T17:23:27.369Z,28.20
2023-12-07T17:25:56.857Z,26.40
2023-12-07T17:28:25.209Z,22.00
2023-12-07T17:30:55.174Z,24.80
2023-12-07T17:33:23.609Z,27.20
2023-12-07T17:35:52.078Z,22.20
2023-12-07T17:38:21.953Z,24.30
2023-12-07T17:40:50.053Z,25.90
2023-12-07T17:43:18.329Z,28.10
2023-12-07T17:45:46.605Z,24.50
2023-12-07T17:48:15.197Z,23.00
2023-12-07T17:50:45.561Z,22.80
2023-12-07T17:53:13.941Z,22.90
2023-12-07T17:55:46.716Z,24.90
2023-12-07T17:58:17.321Z,23.10
2023-12-07T18:00:46.751Z,22.60
2023-12-07T18:03:15.488Z,24.20
2023-12-07T18:05:43.902Z,22.70
2023-12-07T18:08:20.095Z,22.60
2023-12-07T18:10:51.183Z,18.70
2023-12-07T18:13:20.578Z,17.40
2023-12-07T18:15:48.730Z,22.90
2023-12-07T18:18:17.060Z,19.70
2023-12-07T18:20:45.602Z,21.80
2023-12-07T18:23:13.889Z,19.30
2023-12-07T18:25:42.516Z,18.20
2023-12-07T18:28:14.417Z,19.80
2023-12-07T18:30:45.288Z,19.60
2023-12-07T18:33:16.572Z,17.80
2023-12-07T18:35:45.466Z,18.60
2023-12-07T18:38:14.470Z,20.10
2023-12-07T18:40:48.737Z,16.80
2023-12-07T18:43:17.096Z,17.00
2023-12-07T18:45:45.697Z,19.40
2023-12-07T18:48:16.998Z,21.80
2023-12-07T18:50:51.142Z,20.40
2023-12-07T18:53:19.480Z,19.00
2023-12-07T18:55:51.908Z,19.00
2023-12-07T18:58:23.722Z,20.30
2023-12-07T19:00:55.012Z,21.50
2023-12-07T19:03:24.440Z,19.70
2023-12-07T19:05:56.098Z,22.50
2023-12-07T19:08:27.198Z,19.30
2023-12-07T19:10:57.848Z,21.80
2023-12-07T19:13:26.278Z,17.40
2023-12-07T19:15:57.628Z,18.50
2023-12-07T19:18:28.074Z,20.10
2023-12-07T19:20:57.711Z,20.20
2023-12-07T19:23:25.973Z,21.50
2023-12-07T19:25:54.144Z,19.90
2023-12-07T19:28:22.488Z,19.00
2023-12-07T19:30:53.019Z,16.60
2023-12-07T19:33:26.243Z,18.30
2023-12-07T19:36:01.656Z,18.80
2023-12-07T19:38:30.147Z,18.60
2023-12-07T19:40:58.565Z,19.20
2023-12-07T19:43:29.035Z,18.80
2023-12-07T19:45:59.828Z,15.80
2023-12-07T19:48:28.523Z,18.80
2023-12-07T19:50:59.389Z,17.20
2023-12-07T19:53:28.200Z,20.80
2023-12-07T19:55:56.399Z,18.40
2023-12-07T19:58:24.568Z,20.20
2023-12-07T20:00:52.913Z,21.50
2023-12-07T20:03:23.785Z,20.10
2023-12-07T20:05:52.158Z,20.80
2023-12-07T20:08:23.350Z,22.30
2023-12-07T20:10:54.710Z,24.70
2023-12-07T20:13:24.172Z,23.10
2023-12-07T20:15:53.536Z,23.20
2023-12-07T20:18:22.055Z,23.00
2023-12-07T20:20:52.222Z,23.40
2023-12-07T20:23:21.265Z,22.50
2023-12-07T20:25:49.639Z,20.60
2023-12-07T20:28:17.898Z,22.30
2023-12-07T20:30:47.152Z,22.20
2023-12-07T20:33:15.413Z,22.90
2023-12-07T20:35:48.992Z,20.20
2023-12-07T20:38:17.064Z,23.00
2023-12-07T20:40:45.179Z,19.40
2023-12-07T20:43:14.304Z,22.00
2023-12-07T20:45:44.387Z,21.10
2023-12-07T20:48:13.135Z,16.90
2023-12-07T20:50:44.174Z,23.80
2023-12-07T20:53:12.574Z,25.40
2023-12-07T20:55:46.293Z,24.20
2023-12-07T20:58:14.845Z,19.40
2023-12-07T21:00:45.293Z,21.40
2023-12-07T21:03:13.637Z,23.90
2023-12-07T21:05:49.262Z,23.70
2023-12-07T21:08:20.325Z,20.20
2023-12-07T21:10:48.526Z,23.60
2023-12-07T21:13:16.611Z,27.80
2023-12-07T21:15:47.601Z,22.00
2023-12-07T21:18:20.462Z,23.60
2023-12-07T21:20:51.478Z,24.40
2023-12-07T21:23:22.387Z,24.90
2023-12-07T21:25:50.457Z,27.70
2023-12-07T21:28:18.530Z,26.00
2023-12-07T21:30:46.604Z,21.30
2023-12-07T21:33:17.914Z,21.10
2023-12-07T21:38:19.232Z,29.20
2023-12-07T21:40:47.485Z,25.50
2023-12-07T21:43:15.965Z,20.30
2023-12-07T21:45:48.235Z,25.20
2023-12-07T21:48:16.598Z,26.80
2023-12-07T21:50:45.118Z,29.40
2023-12-07T21:53:15.544Z,29.00
2023-12-07T21:55:47.332Z,27.40
2023-12-07T21:58:15.437Z,29.00
2023-12-07T22:00:46.813Z,29.10
2023-12-07T22:03:15.123Z,23.50
2023-12-07T22:05:49.913Z,28.40
2023-12-07T22:08:19.916Z,27.60
2023-12-07T22:10:50.522Z,25.30
2023-12-07T22:13:18.574Z,26.10
2023-12-07T22:15:49.740Z,27.00
2023-12-07T22:18:20.961Z,25.50
2023-12-07T22:20:52.318Z,23.20
2023-12-07T22:23:23.996Z,26.60
2023-12-07T22:25:53.278Z,28.70
2023-12-07T22:28:21.672Z,26.00
2023-12-07T22:30:51.310Z,29.00
2023-12-07T22:33:26.332Z,25.70
2023-12-07T22:36:49.024Z,28.90
2023-12-07T22:39:24.268Z,31.40
2023-12-07T22:41:52.670Z,27.50
2023-12-07T22:44:23.398Z,29.00
2023-12-07T22:46:51.550Z,26.50
2023-12-07T22:49:19.631Z,28.00
2023-12-07T22:51:47.767Z,30.50
2023-12-07T22:54:16.308Z,30.20
2023-12-07T22:56:47.560Z,31.90
2023-12-07T22:59:16.063Z,29.80
2023-12-07T23:01:44.521Z,29.20
2023-12-07T23:04:16.676Z,31.20
2023-12-07T23:06:44.808Z,27.40
2023-12-07T23:09:13.115Z,28.50
2023-12-07T23:11:41.218Z,22.90
2023-12-07T23:14:09.537Z,27.90
2023-12-07T23:16:45.850Z,27.00
2023-12-07T23:19:15.113Z,25.00
2023-12-07T23:21:43.650Z,24.50
2023-12-07T23:24:14.855Z,27.40
2023-12-07T23:26:46.632Z,27.40
2023-12-07T23:29:14.998Z,30.20
2023-12-07T23:31:45.996Z,28.90
2023-12-07T23:34:15.075Z,24.30
2023-12-07T23:36:46.722Z,29.30
2023-12-07T23:39:18.582Z,27.60
2023-12-07T23:41:47.000Z,29.00
2023-12-07T23:44:15.471Z,29.30
2023-12-07T23:46:45.719Z,27.10
2023-12-07T23:49:21.800Z,27.20
2023-12-07T23:51:52.678Z,24.70
2023-12-07T23:54:23.248Z,23.40
2023-12-07T23:56:51.558Z,25.90
2023-12-07T23:59:19.821Z,28.20
